Time;durP1;ratioP1;P1;durP2;ratioP2;P2;SDS_P1;SDS_P2;PMS_P1;PMS_P2;Temp;Humidity;BMP_temperature;BMP_pressure;BME280_temperature;BME280_humidity;BME280_pressure;Samples;Min_cycle;Max_cycle;Signal;HPM_P1;HPM_P2
2022/03/19 00:00:39;;;;;;;1.60;1.50;;;17.20;49.40;18.40;103453.00;;;;5049080;28;20197;-47
2022/03/19 00:03:05;;;;;;;1.60;1.50;;;17.20;49.40;18.40;103451.00;;;;5049336;28;20179;-47
2022/03/19 00:05:30;;;;;;;1.33;1.30;;;17.20;49.30;18.40;103451.00;;;;5048507;28;20693;-46
2022/03/19 00:07:56;;;;;;;1.60;1.50;;;17.20;49.40;18.40;103438.00;;;;5049557;28;20273;-44
2022/03/19 00:10:22;;;;;;;1.70;1.60;;;17.20;49.40;18.40;103445.00;;;;5031624;28;20248;-47
2022/03/19 00:12:49;;;;;;;1.50;1.40;;;17.20;49.40;18.30;103441.00;;;;5049652;28;20168;-46
2022/03/19 00:15:16;;;;;;;1.57;1.47;;;17.20;49.40;18.30;103443.00;;;;5048741;28;20178;-46
2022/03/19 00:17:42;;;;;;;1.57;1.47;;;17.10;49.30;18.30;103437.00;;;;5047575;28;20201;-45
2022/03/19 00:20:08;;;;;;;1.60;1.50;;;17.10;49.40;18.30;103444.00;;;;5049194;28;20170;-46
2022/03/19 00:22:34;;;;;;;1.53;1.43;;;17.10;49.30;18.30;103435.00;;;;5049251;28;20217;-46
2022/03/19 00:25:00;;;;;;;1.50;1.40;;;17.10;49.40;18.30;103437.00;;;;5031589;28;20222;-45
2022/03/19 00:27:25;;;;;;;1.67;1.57;;;17.10;49.40;18.30;103438.00;;;;5047840;28;20609;-47
2022/03/19 00:29:52;;;;;;;1.47;1.37;;;17.10;49.30;18.30;103438.00;;;;5048705;28;20206;-46
2022/03/19 00:32:17;;;;;;;1.67;1.57;;;17.10;49.30;18.20;103445.00;;;;5048697;28;20696;-46
2022/03/19 00:34:43;;;;;;;1.50;1.40;;;17.00;49.20;18.20;103446.00;;;;5049258;28;20158;-48
2022/03/19 00:37:09;;;;;;;1.23;1.20;;;17.00;49.30;18.20;103437.00;;;;5049105;28;20591;-45
2022/03/19 00:39:35;;;;;;;1.40;1.30;;;17.00;49.20;18.20;103445.00;;;;5049654;28;20169;-44
2022/03/19 00:42:00;;;;;;;1.30;1.20;;;17.00;49.20;18.20;103440.00;;;;5048895;28;20725;-46
2022/03/19 00:44:26;;;;;;;1.50;1.40;;;17.00;49.20;18.20;103433.00;;;;5048865;28;20273;-47
2022/03/19 00:46:52;;;;;;;1.50;1.40;;;17.00;49.20;18.10;103440.00;;;;5048725;28;20217;-46
2022/03/19 00:49:18;;;;;;;1.23;1.23;;;17.00;49.20;18.10;103442.00;;;;5049263;28;20191;-46
2022/03/19 00:51:44;;;;;;;1.50;1.40;;;16.90;49.10;18.20;103434.00;;;;5048781;28;20538;-46
2022/03/19 00:54:11;;;;;;;1.60;1.50;;;17.00;49.20;18.20;103435.00;;;;5048956;28;20170;-46
2022/03/19 00:56:37;;;;;;;1.50;1.40;;;16.90;49.20;18.10;103426.00;;;;5047197;28;20178;-45
2022/03/19 00:59:03;;;;;;;1.70;1.60;;;16.90;49.20;18.10;103431.00;;;;5048868;28;20205;-46
2022/03/19 01:01:28;;;;;;;1.50;1.40;;;16.90;49.20;18.10;103429.00;;;;5049668;28;20182;-47
2022/03/19 01:03:54;;;;;;;1.40;1.30;;;16.90;49.20;18.10;103434.00;;;;5050938;28;20174;-47
2022/03/19 01:06:20;;;;;;;1.60;1.47;;;16.90;49.20;18.10;103423.00;;;;5048948;28;20193;-46
2022/03/19 01:08:46;;;;;;;1.73;1.50;;;16.90;49.20;18.10;103418.00;;;;5046778;28;20214;-46
2022/03/19 01:11:12;;;;;;;1.60;1.50;;;16.80;49.10;18.10;103419.00;;;;5047752;28;20190;-47
2022/03/19 01:13:37;;;;;;;1.60;1.50;;;16.90;49.20;18.00;103425.00;;;;5047656;28;20170;-46
2022/03/19 01:16:03;;;;;;;1.50;1.40;;;16.80;49.10;18.00;103430.00;;;;5047734;28;20194;-46
2022/03/19 01:18:30;;;;;;;1.50;1.40;;;16.80;49.10;18.00;103423.00;;;;5048273;28;20860;-45
2022/03/19 01:20:56;;;;;;;1.50;1.40;;;16.80;49.20;18.00;103420.00;;;;5048018;28;20232;-45
2022/03/19 01:23:21;;;;;;;1.53;1.43;;;16.80;49.10;18.00;103413.00;;;;5048001;28;20253;-46
2022/03/19 01:25:47;;;;;;;1.60;1.50;;;16.80;49.10;18.00;103420.00;;;;5047833;28;20244;-46
2022/03/19 01:28:13;;;;;;;1.67;1.57;;;16.80;49.10;18.00;103416.00;;;;5048039;28;20317;-46
2022/03/19 01:30:39;;;;;;;1.43;1.33;;;16.80;49.10;18.00;103418.00;;;;5047838;28;20627;-47
2022/03/19 01:33:04;;;;;;;1.60;1.50;;;16.80;49.10;17.90;103413.00;;;;5047604;28;20198;-46
2022/03/19 01:35:30;;;;;;;1.43;1.30;;;16.80;49.10;17.90;103400.00;;;;5047962;28;20178;-46
2022/03/19 01:37:56;;;;;;;1.17;1.17;;;16.80;49.10;17.90;103402.00;;;;5047838;28;20198;-45
2022/03/19 01:40:22;;;;;;;1.40;1.30;;;16.80;49.10;17.90;103415.00;;;;5047950;28;20190;-46
2022/03/19 01:42:49;;;;;;;1.70;1.60;;;16.70;49.10;17.90;103397.00;;;;5047915;28;20174;-47
2022/03/19 01:45:18;;;;;;;1.37;1.27;;;16.70;49.10;17.90;103395.00;;;;5046585;28;20198;-45
2022/03/19 01:47:44;;;;;;;1.50;1.40;;;16.70;49.10;17.90;103408.00;;;;5047294;28;20651;-46
2022/03/19 01:50:11;;;;;;;1.37;1.27;;;16.70;49.00;17.90;103396.00;;;;5047466;28;20202;-47
2022/03/19 01:52:36;;;;;;;1.30;1.20;;;16.60;49.00;17.80;103388.00;;;;5047566;28;20167;-45
2022/03/19 01:55:03;;;;;;;1.80;1.70;;;16.70;49.00;17.80;103386.00;;;;5047168;28;20182;-46
2022/03/19 01:57:31;;;;;;;1.70;1.60;;;16.60;49.00;17.80;103382.00;;;;5046924;28;20224;-46
2022/03/19 01:59:57;;;;;;;1.73;1.63;;;16.60;49.00;17.80;103382.00;;;;5045987;28;20201;-45
2022/03/19 02:02:25;;;;;;;1.60;1.50;;;16.60;49.00;17.80;103380.00;;;;5047272;28;20623;-46
2022/03/19 02:04:51;;;;;;;1.73;1.60;;;16.60;49.10;17.80;103379.00;;;;5047306;28;20209;-46
2022/03/19 02:07:16;;;;;;;1.60;1.50;;;16.60;49.00;17.80;103371.00;;;;5029427;28;20194;-46
2022/03/19 02:09:42;;;;;;;1.50;1.40;;;16.60;49.00;17.80;103370.00;;;;5046479;28;20237;-46
2022/03/19 02:12:08;;;;;;;1.50;1.40;;;16.50;48.90;17.80;103385.00;;;;5047352;28;20635;-47
2022/03/19 02:14:38;;;;;;;1.47;1.40;;;16.50;49.00;17.70;103370.00;;;;5045965;28;20185;-45
2022/03/19 02:17:05;;;;;;;1.50;1.40;;;16.60;49.00;17.70;103370.00;;;;5047186;28;20198;-47
2022/03/19 02:19:31;;;;;;;1.60;1.50;;;16.50;49.00;17.70;103369.00;;;;5047045;28;20694;-45
2022/03/19 02:21:57;;;;;;;1.70;1.60;;;16.50;48.90;17.70;103371.00;;;;5045464;28;20258;-46
2022/03/19 02:27:07;;;;;;;1.40;1.30;;;16.50;49.00;17.60;103359.00;;;;5047148;28;20324;-44
2022/03/19 02:29:32;;;;;;;1.40;1.30;;;16.50;49.00;17.60;103358.00;;;;5047169;28;20202;-46
2022/03/19 02:32:06;;;;;;;1.57;1.47;;;16.40;48.90;17.60;103351.00;;;;5046911;28;20177;-45
2022/03/19 02:34:33;;;;;;;1.63;1.40;;;16.40;48.90;17.60;103359.00;;;;5045688;28;20197;-46
2022/03/19 02:36:59;;;;;;;1.50;1.40;;;16.40;49.00;17.60;103362.00;;;;5046555;28;20198;-47
2022/03/19 02:39:30;;;;;;;1.40;1.30;;;16.40;49.00;17.60;103356.00;;;;5046801;28;20166;-45
2022/03/19 02:42:01;;;;;;;1.70;1.50;;;16.40;48.90;17.60;103345.00;;;;5046716;28;20213;-45
2022/03/19 02:44:26;;;;;;;1.20;1.10;;;16.40;48.90;17.60;103356.00;;;;5046962;28;20623;-46
2022/03/19 02:46:57;;;;;;;1.40;1.30;;;16.40;48.90;17.60;103355.00;;;;5046252;28;20312;-46
2022/03/19 02:49:23;;;;;;;1.50;1.40;;;16.40;48.90;17.50;103350.00;;;;5046684;28;20658;-45
2022/03/19 02:51:51;;;;;;;1.50;1.40;;;16.40;49.00;17.50;103351.00;;;;5046657;28;20739;-44
2022/03/19 02:54:19;;;;;;;1.50;1.40;;;16.30;48.90;17.50;103339.00;;;;5045573;28;20552;-45
2022/03/19 02:56:44;;;;;;;1.40;1.30;;;16.30;48.90;17.50;103351.00;;;;5046354;28;20220;-45
2022/03/19 02:59:22;;;;;;;1.50;1.40;;;16.30;48.90;17.50;103338.00;;;;5046394;28;20257;-45
2022/03/19 03:01:52;;;;;;;1.23;1.13;;;16.30;48.90;17.50;103340.00;;;;5046083;28;20210;-45
2022/03/19 03:04:18;;;;;;;1.50;1.40;;;16.30;48.90;17.50;103337.00;;;;5046793;28;20170;-45
2022/03/19 03:06:46;;;;;;;1.60;1.50;;;16.30;48.90;17.50;103328.00;;;;5046221;28;20198;-46
2022/03/19 03:09:12;;;;;;;1.17;1.17;;;16.30;49.00;17.40;103326.00;;;;5045821;28;20971;-47
2022/03/19 03:11:38;;;;;;;1.50;1.40;;;16.30;49.00;17.40;103328.00;;;;5046160;28;20166;-46
2022/03/19 03:14:05;;;;;;;1.40;1.30;;;16.20;49.00;17.40;103316.00;;;;5046706;28;20170;-47
2022/03/19 03:16:30;;;;;;;1.50;1.40;;;16.20;48.80;17.40;103323.00;;;;5045067;28;20186;-45
2022/03/19 03:18:57;;;;;;;1.60;1.50;;;16.20;48.80;17.40;103317.00;;;;5046541;28;20201;-46
2022/03/19 03:21:24;;;;;;;1.23;1.23;;;16.30;48.90;17.40;103313.00;;;;5046535;28;20185;-46
2022/03/19 03:23:50;;;;;;;1.40;1.30;;;16.20;48.90;17.40;103307.00;;;;5046312;28;20179;-44
2022/03/19 03:26:15;;;;;;;1.60;1.50;;;16.20;48.80;17.30;103318.00;;;;5045285;28;20232;-47
2022/03/19 03:28:41;;;;;;;1.47;1.37;;;16.20;48.80;17.30;103314.00;;;;5046131;28;20194;-47
2022/03/19 03:31:07;;;;;;;1.60;1.50;;;16.20;48.80;17.30;103313.00;;;;5046197;28;20295;-45
2022/03/19 03:33:33;;;;;;;1.43;1.33;;;16.10;48.80;17.30;103314.00;;;;5045028;28;20578;-48
2022/03/19 03:35:58;;;;;;;1.03;1.03;;;16.10;48.80;17.30;103336.00;;;;5048447;28;20265;-46
2022/03/19 03:38:24;;;;;;;1.47;1.37;;;16.10;48.80;17.30;103327.00;;;;5050104;28;20182;-46
2022/03/19 03:40:51;;;;;;;1.50;1.40;;;16.10;48.90;17.30;103321.00;;;;5049957;28;20698;-47
2022/03/19 03:43:17;;;;;;;1.10;1.10;;;16.10;48.80;17.30;103314.00;;;;5049720;28;20182;-46
2022/03/19 03:45:43;;;;;;;1.30;1.30;;;16.10;48.90;17.30;103319.00;;;;5049898;28;20205;-46
2022/03/19 03:48:09;;;;;;;1.30;1.20;;;16.10;48.90;17.20;103319.00;;;;5049320;28;20681;-46
2022/03/19 03:50:36;;;;;;;1.67;1.57;;;16.10;48.80;17.20;103312.00;;;;5049865;28;20197;-48
2022/03/19 03:53:04;;;;;;;1.40;1.30;;;16.10;48.90;17.20;103313.00;;;;5032288;28;20409;-46
2022/03/19 03:55:29;;;;;;;1.53;1.43;;;16.10;48.90;17.20;103317.00;;;;5032381;28;20533;-46
2022/03/19 03:57:56;;;;;;;1.40;1.30;;;16.00;48.80;17.20;103312.00;;;;5048426;28;20194;-45
2022/03/19 04:00:21;;;;;;;1.50;1.40;;;16.00;48.90;17.20;103303.00;;;;5048238;28;20183;-45
2022/03/19 04:02:47;;;;;;;1.30;1.20;;;16.00;48.80;17.20;103330.00;;;;5049416;28;20182;-45
2022/03/19 04:05:13;;;;;;;1.40;1.30;;;16.00;48.70;17.20;103314.00;;;;5049375;28;20170;-46
2022/03/19 04:07:38;;;;;;;1.23;1.13;;;16.00;48.80;17.10;103304.00;;;;5049421;28;20559;-46
2022/03/19 04:10:05;;;;;;;1.33;1.30;;;16.00;48.80;17.10;103305.00;;;;5049206;28;20210;-45
2022/03/19 04:12:30;;;;;;;1.40;1.30;;;15.90;48.70;17.10;103311.00;;;;5050309;28;20789;-46
2022/03/19 04:14:56;;;;;;;1.30;1.20;;;15.90;48.70;17.10;103311.00;;;;5051973;28;20170;-45
2022/03/19 04:17:22;;;;;;;1.40;1.30;;;15.90;48.80;17.10;103318.00;;;;5050531;28;20252;-46
2022/03/19 04:19:47;;;;;;;1.63;1.53;;;16.00;48.80;17.10;103305.00;;;;5049423;28;20535;-45
2022/03/19 04:22:13;;;;;;;1.50;1.40;;;15.90;48.70;17.10;103306.00;;;;5049422;28;20178;-45
2022/03/19 04:24:39;;;;;;;1.50;1.40;;;15.90;48.70;17.10;103304.00;;;;5049291;28;20239;-44
2022/03/19 04:27:05;;;;;;;2.27;1.33;;;15.90;48.70;17.10;103312.00;;;;5048878;28;20190;-45
2022/03/19 04:29:30;;;;;;;2.90;1.50;;;15.90;48.70;17.00;103303.00;;;;5049006;28;20232;-46
2022/03/19 04:31:56;;;;;;;1.43;1.33;;;15.90;48.70;17.00;103309.00;;;;5047878;28;20209;-45
2022/03/19 04:34:22;;;;;;;2.13;1.40;;;15.90;48.70;17.00;103308.00;;;;5048863;28;20204;-45
2022/03/19 04:36:48;;;;;;;1.77;1.23;;;15.90;48.70;17.00;103309.00;;;;5048765;28;20190;-48
2022/03/19 04:39:13;;;;;;;1.43;1.30;;;15.90;48.90;17.00;103322.00;;;;5048676;28;20171;-45
2022/03/19 04:41:39;;;;;;;1.53;1.30;;;15.80;48.80;17.00;103320.00;;;;5047696;28;20193;-45
2022/03/19 04:44:07;;;;;;;1.77;1.30;;;15.80;48.80;16.90;103322.00;;;;5045818;28;20190;-45
2022/03/19 04:46:33;;;;;;;2.53;1.40;;;15.80;48.90;16.90;103306.00;;;;5046748;28;20209;-45
2022/03/19 04:48:59;;;;;;;1.73;1.40;;;15.80;48.90;16.90;103313.00;;;;5048347;28;20248;-45
2022/03/19 04:51:32;;;;;;;1.70;1.50;;;15.80;48.90;16.90;103318.00;;;;5048606;28;20224;-45
2022/03/19 04:53:58;;;;;;;1.70;1.60;;;15.80;48.80;16.90;103310.00;;;;5047242;28;20159;-45
2022/03/19 04:56:24;;;;;;;2.07;1.43;;;15.70;48.70;16.90;103308.00;;;;5046944;28;20205;-45
2022/03/19 04:58:55;;;;;;;2.07;1.50;;;15.80;48.80;16.90;103315.00;;;;5048479;28;20190;-44
2022/03/19 05:01:24;;;;;;;3.20;1.73;;;15.70;48.60;16.90;103325.00;;;;5048240;28;20178;-45
2022/03/19 05:03:49;;;;;;;2.27;1.60;;;15.70;48.70;16.80;103309.00;;;;5048551;28;20182;-45
2022/03/19 05:06:15;;;;;;;2.37;1.70;;;15.70;48.70;16.80;103306.00;;;;5048094;28;20179;-45
2022/03/19 05:08:41;;;;;;;4.23;1.80;;;15.70;48.70;16.80;103299.00;;;;5048142;28;20198;-45
2022/03/19 05:11:14;;;;;;;3.63;2.10;;;15.70;48.90;16.80;103300.00;;;;5047902;28;20559;-45
2022/03/19 05:13:44;;;;;;;2.23;1.70;;;15.70;48.90;16.80;103298.00;;;;5048143;28;20169;-46
2022/03/19 05:16:13;;;;;;;4.63;1.80;;;15.70;48.70;16.80;103309.00;;;;5047799;28;20254;-45
2022/03/19 05:18:39;;;;;;;3.10;1.70;;;15.70;48.80;16.70;103317.00;;;;5047928;28;20653;-46
2022/03/19 05:21:04;;;;;;;3.07;1.63;;;15.60;48.80;16.70;103310.00;;;;5047603;28;20185;-45
2022/03/19 05:23:30;;;;;;;5.13;1.90;;;15.60;48.80;16.70;103304.00;;;;5047728;28;20178;-45
2022/03/19 05:25:57;;;;;;;3.27;1.80;;;15.70;48.80;16.70;103313.00;;;;5047973;28;20750;-44
2022/03/19 05:28:23;;;;;;;8.40;2.30;;;15.60;48.80;16.70;103314.00;;;;5047615;28;20589;-46
2022/03/19 05:30:48;;;;;;;6.40;2.20;;;15.60;48.80;16.70;103311.00;;;;5047335;28;20163;-44
2022/03/19 05:33:14;;;;;;;6.80;2.20;;;15.60;48.80;16.70;103307.00;;;;5047536;28;20186;-44
2022/03/19 05:35:42;;;;;;;8.97;2.10;;;15.60;48.80;16.70;103308.00;;;;5046390;28;20627;-46
2022/03/19 05:38:07;;;;;;;7.40;2.40;;;15.60;48.80;16.70;103307.00;;;;5046151;28;20216;-47
2022/03/19 05:40:33;;;;;;;3.50;2.10;;;15.60;48.90;16.70;103316.00;;;;5047066;28;20630;-48
2022/03/19 05:42:59;;;;;;;5.40;2.33;;;15.60;48.90;16.70;103310.00;;;;5047314;28;20182;-45
2022/03/19 05:45:24;;;;;;;5.03;2.37;;;15.60;48.80;16.60;103310.00;;;;5047823;28;20597;-45
2022/03/19 05:47:50;;;;;;;4.33;2.10;;;15.60;48.90;16.60;103311.00;;;;5047323;28;20260;-45
2022/03/19 05:50:16;;;;;;;4.10;1.93;;;15.50;48.90;16.60;103320.00;;;;5047219;28;20594;-45
2022/03/19 05:52:45;;;;;;;4.87;1.60;;;15.50;48.90;16.60;103320.00;;;;5045756;28;20174;-46
2022/03/19 05:55:10;;;;;;;4.17;2.10;;;15.50;48.90;16.60;103323.00;;;;5045897;28;20162;-45
2022/03/19 05:57:36;;;;;;;5.33;2.07;;;15.50;48.90;16.60;103326.00;;;;5046578;28;20586;-45
2022/03/19 06:00:03;;;;;;;3.80;1.80;;;15.50;48.90;16.60;103324.00;;;;5047089;28;20553;-47
2022/03/19 06:02:29;;;;;;;4.50;2.00;;;15.40;48.90;16.50;103321.00;;;;5046817;28;20234;-45
2022/03/19 06:04:55;;;;;;;4.23;1.90;;;15.50;49.00;16.50;103323.00;;;;5042261;28;20937;-47
2022/03/19 06:07:20;;;;;;;3.03;1.80;;;15.40;48.90;16.50;103325.00;;;;5047917;28;20198;-45
2022/03/19 06:09:46;;;;;;;4.43;2.00;;;15.50;48.90;16.50;103327.00;;;;5048370;28;20580;-44
2022/03/19 06:12:12;;;;;;;4.50;2.20;;;15.40;48.90;16.50;103335.00;;;;5046980;28;20289;-47
2022/03/19 06:14:38;;;;;;;3.23;1.77;;;15.40;48.90;16.50;103328.00;;;;5047195;28;20185;-45
2022/03/19 06:17:04;;;;;;;2.83;2.00;;;15.40;49.00;16.50;103330.00;;;;5047803;28;20193;-46
2022/03/19 06:19:30;;;;;;;2.93;1.80;;;15.40;49.00;16.50;103325.00;;;;5047987;28;20174;-45
2022/03/19 06:21:55;;;;;;;1.83;1.50;;;15.40;49.00;16.40;103327.00;;;;5047799;28;20720;-46
2022/03/19 06:24:23;;;;;;;2.60;1.63;;;15.40;49.00;16.40;103316.00;;;;5048502;28;20174;-46
2022/03/19 06:26:50;;;;;;;4.30;1.80;;;15.40;49.10;16.40;103316.00;;;;5048820;28;20198;-44
2022/03/19 06:29:16;;;;;;;3.03;1.90;;;15.30;49.00;16.40;103240.00;;;;5047056;28;20569;-46
2022/03/19 06:31:41;;;;;;;1.90;1.70;;;15.40;49.10;16.40;103311.00;;;;5047330;28;20171;-47
2022/03/19 06:34:07;;;;;;;2.27;1.70;;;15.40;49.10;16.40;103314.00;;;;5048462;28;20178;-42
2022/03/19 06:39:17;;;;;;;2.17;1.80;;;15.30;49.10;16.40;103315.00;;;;5048165;28;20173;-47
2022/03/19 06:41:43;;;;;;;2.10;1.60;;;15.30;49.10;16.40;103306.00;;;;5047371;28;20646;-46
2022/03/19 06:44:09;;;;;;;2.40;1.80;;;15.30;49.00;16.40;103318.00;;;;5047982;28;20652;-47
2022/03/19 06:46:34;;;;;;;1.73;1.63;;;15.30;49.20;16.30;103313.00;;;;5048042;28;20205;-46
2022/03/19 06:49:00;;;;;;;2.10;1.70;;;15.30;49.10;16.30;103315.00;;;;5047970;28;20312;-46
2022/03/19 06:51:26;;;;;;;2.63;1.80;;;15.30;49.10;16.30;103244.00;;;;5047491;28;20761;-44
2022/03/19 06:53:51;;;;;;;1.60;1.50;;;15.20;49.10;16.30;103316.00;;;;5047352;28;20162;-47
2022/03/19 06:56:18;;;;;;;1.53;1.40;;;15.20;49.10;16.30;103318.00;;;;5047932;28;20220;-46
2022/03/19 06:58:43;;;;;;;1.90;1.50;;;15.30;49.30;16.30;103307.00;;;;5048164;28;20162;-46
2022/03/19 07:01:14;;;;;;;2.73;1.80;;;15.20;49.10;16.30;103300.00;;;;5046095;28;20193;-46
2022/03/19 07:03:46;;;;;;;2.53;1.77;;;15.20;49.10;16.30;103309.00;;;;5048237;28;20531;-46
2022/03/19 07:06:12;;;;;;;2.00;1.50;;;15.20;49.10;16.20;103310.00;;;;5031110;28;20193;-46
2022/03/19 07:08:38;;;;;;;1.90;1.50;;;15.20;49.20;16.30;103290.00;;;;5047869;28;20190;-47
2022/03/19 07:11:04;;;;;;;2.23;1.80;;;15.20;49.10;16.20;103313.00;;;;5049062;28;20535;-46
2022/03/19 07:13:31;;;;;;;2.43;1.70;;;15.20;49.20;16.20;103314.00;;;;5050444;28;20660;-45
2022/03/19 07:15:57;;;;;;;2.13;1.80;;;15.10;49.20;16.20;103310.00;;;;5051941;28;20158;-47
2022/03/19 07:18:23;;;;;;;1.60;1.50;;;15.20;49.30;16.20;103310.00;;;;5052138;28;20198;-45
2022/03/19 07:20:50;;;;;;;2.70;1.53;;;15.20;49.20;16.20;103309.00;;;;5051893;28;20178;-46
2022/03/19 07:23:16;;;;;;;2.00;1.80;;;15.20;49.30;16.20;103299.00;;;;5052152;28;20163;-48
2022/03/19 07:25:43;;;;;;;2.53;1.70;;;15.10;49.20;16.20;103307.00;;;;5051502;28;20178;-46
2022/03/19 07:28:11;;;;;;;1.80;1.70;;;15.10;49.30;16.20;103286.00;;;;5051390;28;20273;-45
2022/03/19 07:30:36;;;;;;;1.63;1.50;;;15.10;49.30;16.20;103293.00;;;;5049692;28;20166;-46
2022/03/19 07:33:02;;;;;;;3.50;1.80;;;15.10;49.30;16.20;103295.00;;;;5051208;28;20167;-47
2022/03/19 07:35:28;;;;;;;1.70;1.20;;;15.10;50.60;16.20;103293.00;;;;5051595;28;20186;-47
2022/03/19 07:37:54;;;;;;;2.40;1.60;;;15.20;49.80;16.20;103298.00;;;;5049645;28;20190;-45
2022/03/19 07:43:06;;;;;;;4.20;1.90;;;15.10;49.70;16.10;103287.00;;;;5050139;28;20818;-44
2022/03/19 07:45:32;;;;;;;3.07;1.70;;;15.10;49.80;16.10;103287.00;;;;5050822;28;20312;-45
2022/03/19 07:47:58;;;;;;;3.50;1.73;;;15.10;50.10;16.10;103286.00;;;;5050922;28;20190;-45
2022/03/19 07:50:23;;;;;;;3.67;1.70;;;15.10;50.20;16.10;103284.00;;;;5050769;28;20636;-45
2022/03/19 07:52:50;;;;;;;2.73;1.70;;;15.10;50.10;16.10;103280.00;;;;5050808;28;20555;-46
2022/03/19 07:55:16;;;;;;;2.63;1.70;;;15.10;50.10;16.10;103256.00;;;;5050212;28;20543;-45
2022/03/19 07:57:42;;;;;;;2.37;1.93;;;15.10;50.10;16.10;103272.00;;;;5049190;28;20202;-47
2022/03/19 08:00:09;;;;;;;2.20;1.77;;;15.10;50.00;16.10;103277.00;;;;5050871;28;20186;-45
2022/03/19 08:02:35;;;;;;;2.83;1.90;;;15.10;50.10;16.10;103284.00;;;;5051264;28;20182;-45
2022/03/19 08:05:05;;;;;;;2.17;1.60;;;15.10;50.00;16.10;103285.00;;;;5051026;28;20639;-46
2022/03/19 08:07:30;;;;;;;2.10;1.70;;;15.00;50.00;16.10;103288.00;;;;5050525;28;20515;-45
2022/03/19 08:09:56;;;;;;;2.10;1.90;;;15.10;50.00;16.00;103281.00;;;;5050400;28;20213;-46
2022/03/19 08:12:22;;;;;;;2.90;1.90;;;15.10;50.00;16.00;103284.00;;;;5048907;28;20182;-46
2022/03/19 08:14:49;;;;;;;3.27;2.00;;;15.00;50.00;16.00;103273.00;;;;5048407;28;20193;-46
2022/03/19 08:17:14;;;;;;;7.80;2.10;;;15.10;50.10;16.00;103285.00;;;;5048551;28;20208;-45
2022/03/19 08:19:42;;;;;;;2.40;1.90;;;14.90;51.10;16.00;103288.00;;;;5049854;28;20178;-46
2022/03/19 08:22:08;;;;;;;5.73;2.13;;;14.90;50.70;15.90;103274.00;;;;5048773;28;20182;-45
2022/03/19 08:24:35;;;;;;;5.83;2.00;;;14.90;51.00;15.90;103291.00;;;;4991544;28;20236;-45
2022/03/19 08:27:01;;;;;;;5.17;2.00;;;14.90;51.40;15.90;103295.00;;;;4990023;28;20730;-48
2022/03/19 08:29:27;;;;;;;7.03;2.17;;;14.90;51.00;15.90;103311.00;;;;4902532;28;20196;-45
2022/03/19 08:31:53;;;;;;;10.37;2.63;;;14.90;51.20;15.90;103296.00;;;;4990365;28;20332;-45
2022/03/19 08:34:19;;;;;;;5.97;2.10;;;14.90;52.20;15.90;103290.00;;;;5001564;28;20241;-43
2022/03/19 08:36:44;;;;;;;4.50;2.10;;;14.90;51.20;15.90;103292.00;;;;5010199;28;20278;-45
2022/03/19 08:41:54;;;;;;;5.37;2.03;;;14.90;51.40;15.90;103292.00;;;;5010016;28;20163;-44
2022/03/19 08:44:20;;;;;;;7.47;2.70;;;14.90;51.40;15.90;103288.00;;;;5010296;28;20172;-44
2022/03/19 08:46:46;;;;;;;3.37;1.83;;;14.90;51.30;15.90;103284.00;;;;4996271;28;20204;-45
2022/03/19 08:49:12;;;;;;;6.07;2.00;;;14.90;51.40;15.90;103286.00;;;;4990900;28;20790;-47
2022/03/19 08:51:40;;;;;;;5.77;2.10;;;14.90;51.40;15.90;103293.00;;;;4990091;28;20848;-45
2022/03/19 08:54:14;;;;;;;3.10;2.10;;;14.90;51.40;15.90;103286.00;;;;4990716;28;20180;-45
2022/03/19 08:56:41;;;;;;;4.93;2.00;;;14.90;51.80;15.70;103281.00;;;;4990112;28;20196;-45
2022/03/19 08:59:07;;;;;;;5.97;2.17;;;14.90;51.80;15.60;103295.00;;;;4989892;28;20242;-46
2022/03/19 09:01:33;;;;;;;5.40;2.00;;;15.00;51.90;15.90;103280.00;;;;4989592;28;20184;-45
2022/03/19 09:03:58;;;;;;;4.00;2.10;;;15.00;51.90;15.90;103275.00;;;;4990261;28;20164;-44
2022/03/19 09:06:24;;;;;;;4.07;2.30;;;15.00;51.90;15.90;103267.00;;;;4990119;28;20231;-46
2022/03/19 09:08:50;;;;;;;4.93;2.17;;;15.00;51.90;15.90;103270.00;;;;4989951;28;20270;-46
2022/03/19 09:11:18;;;;;;;4.80;2.40;;;15.00;51.80;15.90;103271.00;;;;4989202;28;20664;-46
2022/03/19 09:13:45;;;;;;;5.63;2.00;;;15.00;51.90;15.90;103271.00;;;;4989546;28;20210;-44
2022/03/19 09:16:10;;;;;;;3.93;2.03;;;14.90;51.80;15.90;103276.00;;;;4989489;28;20231;-47
2022/03/19 09:18:36;;;;;;;2.90;1.90;;;15.00;51.80;15.90;103264.00;;;;4990203;28;20196;-44
2022/03/19 09:21:02;;;;;;;3.43;2.20;;;14.90;51.70;15.90;103267.00;;;;4989643;28;20179;-44
2022/03/19 09:23:28;;;;;;;4.87;2.50;;;15.00;51.90;15.90;103259.00;;;;5004308;28;20633;-46
2022/03/19 09:25:54;;;;;;;3.37;2.20;;;14.90;51.60;15.90;103252.00;;;;5009292;28;20234;-46
2022/03/19 09:28:20;;;;;;;4.50;2.20;;;14.90;51.60;15.90;103242.00;;;;5008945;28;20700;-45
2022/03/19 09:30:46;;;;;;;6.07;2.40;;;14.90;51.60;15.80;103253.00;;;;4888378;28;20185;-45
2022/03/19 09:33:11;;;;;;;4.60;2.30;;;14.90;51.80;15.80;103253.00;;;;4988441;28;20668;-44
2022/03/19 09:35:37;;;;;;;5.27;2.20;;;15.00;51.80;15.90;103244.00;;;;4988935;28;20179;-46
2022/03/19 09:38:03;;;;;;;5.10;2.00;;;15.20;51.90;15.90;103238.00;;;;4989068;28;20203;-46
2022/03/19 09:40:29;;;;;;;5.37;2.30;;;15.40;51.50;16.00;103254.00;;;;4988935;28;20295;-47
2022/03/19 09:42:56;;;;;;;9.87;2.30;;;15.60;51.40;16.10;103231.00;;;;4989161;28;20176;-45
2022/03/19 09:45:22;;;;;;;4.07;2.30;;;15.70;51.10;16.20;103229.00;;;;4988956;28;20219;-45
2022/03/19 09:47:49;;;;;;;8.40;2.50;;;15.80;51.10;16.30;103220.00;;;;4979020;28;20271;-45
2022/03/19 09:50:15;;;;;;;4.30;2.10;;;15.90;51.10;16.30;103216.00;;;;4969670;28;20213;-47
2022/03/19 09:52:42;;;;;;;3.70;1.90;;;15.90;51.20;16.40;103214.00;;;;4975184;28;20211;-45
2022/03/19 09:55:09;;;;;;;6.90;2.20;;;16.00;51.40;16.50;103212.00;;;;4989460;28;20161;-49
2022/03/19 09:57:35;;;;;;;5.60;2.00;;;16.10;51.40;16.60;103213.00;;;;5003972;28;20605;-44
2022/03/19 10:00:00;;;;;;;6.87;2.00;;;16.20;51.50;16.60;103192.00;;;;4989031;28;20172;-47
2022/03/19 10:02:26;;;;;;;4.70;2.43;;;16.30;51.40;16.70;103201.00;;;;4988565;28;20235;-47
2022/03/19 10:04:57;;;;;;;5.77;2.83;;;16.30;51.40;16.80;103192.00;;;;4988294;28;20184;-46
2022/03/19 10:10:08;;;;;;;11.73;4.40;;;16.50;52.90;17.00;103184.00;;;;4988222;28;20354;-49
2022/03/19 10:12:34;;;;;;;12.93;5.90;;;16.70;55.10;17.00;103182.00;;;;5007870;28;20270;-48
2022/03/19 10:15:00;;;;;;;12.93;4.97;;;16.80;55.70;17.00;103173.00;;;;5008972;28;20660;-47
2022/03/19 10:17:32;;;;;;;13.33;4.77;;;16.90;54.80;17.20;103170.00;;;;4998649;28;20196;-46
2022/03/19 10:20:11;;;;;;;15.00;5.33;;;16.90;54.60;17.30;103166.00;;;;4989330;28;20172;-46
2022/03/19 10:22:45;;;;;;;20.47;6.50;;;17.00;55.00;17.30;103158.00;;;;4998279;28;20229;-46
2022/03/19 10:25:12;;;;;;;18.33;6.23;;;17.10;56.00;17.40;103159.00;;;;5009533;28;20199;-46
2022/03/19 10:27:40;;;;;;;14.03;5.67;;;17.20;56.30;17.50;103146.00;;;;5008486;28;20214;-45
2022/03/19 10:30:10;;;;;;;11.13;5.53;;;17.20;55.30;17.50;103154.00;;;;4881869;28;20565;-48
2022/03/19 10:32:39;;;;;;;16.20;5.13;;;17.30;54.80;17.60;103155.00;;;;4988221;28;20223;-47
2022/03/19 10:35:05;;;;;;;15.37;4.90;;;17.40;54.60;17.70;103142.00;;;;4988381;28;20175;-46
2022/03/19 10:37:38;;;;;;;10.67;4.43;;;17.40;54.30;17.70;103146.00;;;;4988353;28;20944;-47
2022/03/19 10:40:05;;;;;;;8.57;4.40;;;17.40;54.00;17.80;103147.00;;;;4988880;28;20260;-46
2022/03/19 10:42:41;;;;;;;9.73;4.03;;;17.50;53.80;17.80;103140.00;;;;4987264;28;20245;-48
2022/03/19 10:45:10;;;;;;;12.73;4.23;;;17.50;53.70;17.90;103128.00;;;;4988449;28;20211;-47
2022/03/19 10:47:43;;;;;;;12.00;4.10;;;17.60;53.70;17.90;103076.00;;;;4988349;28;20200;-47
2022/03/19 10:50:20;;;;;;;6.10;3.50;;;17.60;53.70;18.00;103132.00;;;;4987820;28;20207;-47
2022/03/19 10:52:50;;;;;;;8.63;3.60;;;17.70;53.70;18.00;103111.00;;;;4986348;28;20736;-47
2022/03/19 10:55:16;;;;;;;11.17;3.77;;;17.70;53.40;18.10;103114.00;;;;4986716;28;20196;-46
2022/03/19 10:57:42;;;;;;;6.80;3.77;;;17.80;53.20;18.10;103113.00;;;;4988748;28;20270;-48